sensor_id;sensor_type;location;lat;lon;timestamp;P1;durP1;ratioP1;P2;durP2;ratioP2
49978;SDS011;35869;50.990;6.962;2023-04-03T00:02:51;5.43;;;4.55;;
49978;SDS011;35869;50.990;6.962;2023-04-03T00:07:51;7.82;;;5.72;;
49978;SDS011;35869;50.990;6.962;2023-04-03T00:12:52;8.88;;;5.07;;
49978;SDS011;35869;50.990;6.962;2023-04-03T00:17:52;5.88;;;5.28;;
49978;SDS011;35869;50.990;6.962;2023-04-03T00:22:52;7.35;;;4.93;;
49978;SDS011;35869;50.990;6.962;2023-04-03T00:27:53;6.65;;;4.72;;
49978;SDS011;35869;50.990;6.962;2023-04-03T00:32:53;7.83;;;5.40;;
49978;SDS011;35869;50.990;6.962;2023-04-03T00:37:54;7.60;;;5.70;;
49978;SDS011;35869;50.990;6.962;2023-04-03T00:42:56;5.45;;;4.95;;
49978;SDS011;35869;50.990;6.962;2023-04-03T00:47:57;7.82;;;4.85;;
49978;SDS011;35869;50.990;6.962;2023-04-03T00:52:59;5.13;;;4.63;;
49978;SDS011;35869;50.990;6.962;2023-04-03T00:58:00;5.63;;;4.77;;
49978;SDS011;35869;50.990;6.962;2023-04-03T01:03:01;4.80;;;4.30;;
49978;SDS011;35869;50.990;6.962;2023-04-03T01:08:02;7.63;;;4.50;;
49978;SDS011;35869;50.990;6.962;2023-04-03T01:13:02;10.23;;;4.45;;
49978;SDS011;35869;50.990;6.962;2023-04-03T01:18:24;10.00;;;4.68;;
49978;SDS011;35869;50.990;6.962;2023-04-03T01:28:50;6.88;;;4.75;;
49978;SDS011;35869;50.990;6.962;2023-04-03T01:33:50;8.07;;;4.68;;
49978;SDS011;35869;50.990;6.962;2023-04-03T01:38:51;5.25;;;4.53;;
49978;SDS011;35869;50.990;6.962;2023-04-03T01:43:52;5.47;;;5.00;;
49978;SDS011;35869;50.990;6.962;2023-04-03T01:48:52;5.13;;;4.60;;
49978;SDS011;35869;50.990;6.962;2023-04-03T01:53:53;6.18;;;4.25;;
49978;SDS011;35869;50.990;6.962;2023-04-03T01:58:53;6.00;;;4.78;;
49978;SDS011;35869;50.990;6.962;2023-04-03T02:03:53;6.78;;;4.72;;
49978;SDS011;35869;50.990;6.962;2023-04-03T02:08:54;5.15;;;4.65;;
49978;SDS011;35869;50.990;6.962;2023-04-03T02:13:54;6.28;;;4.60;;
49978;SDS011;35869;50.990;6.962;2023-04-03T02:18:54;5.43;;;4.68;;
49978;SDS011;35869;50.990;6.962;2023-04-03T02:23:54;5.43;;;4.45;;
49978;SDS011;35869;50.990;6.962;2023-04-03T02:28:54;4.55;;;4.13;;
49978;SDS011;35869;50.990;6.962;2023-04-03T02:33:55;6.57;;;5.35;;
49978;SDS011;35869;50.990;6.962;2023-04-03T02:38:55;4.93;;;4.53;;
49978;SDS011;35869;50.990;6.962;2023-04-03T02:43:55;4.82;;;4.30;;
49978;SDS011;35869;50.990;6.962;2023-04-03T02:48:55;4.93;;;4.40;;
49978;SDS011;35869;50.990;6.962;2023-04-03T02:53:56;4.57;;;4.03;;
49978;SDS011;35869;50.990;6.962;2023-04-03T02:58:56;5.15;;;4.65;;
49978;SDS011;35869;50.990;6.962;2023-04-03T03:03:56;4.82;;;4.13;;
49978;SDS011;35869;50.990;6.962;2023-04-03T03:08:57;5.28;;;4.28;;
49978;SDS011;35869;50.990;6.962;2023-04-03T03:13:57;5.35;;;4.43;;
49978;SDS011;35869;50.990;6.962;2023-04-03T03:18:58;4.50;;;4.00;;
49978;SDS011;35869;50.990;6.962;2023-04-03T03:23:58;7.20;;;3.67;;
49978;SDS011;35869;50.990;6.962;2023-04-03T03:28:58;5.95;;;3.92;;
49978;SDS011;35869;50.990;6.962;2023-04-03T03:33:58;4.32;;;3.70;;
49978;SDS011;35869;50.990;6.962;2023-04-03T03:38:58;5.60;;;3.70;;
49978;SDS011;35869;50.990;6.962;2023-04-03T03:43:59;4.38;;;3.97;;
49978;SDS011;35869;50.990;6.962;2023-04-03T03:48:59;3.58;;;3.28;;
49978;SDS011;35869;50.990;6.962;2023-04-03T03:53:59;6.63;;;3.53;;
49978;SDS011;35869;50.990;6.962;2023-04-03T03:58:59;6.53;;;3.30;;
49978;SDS011;35869;50.990;6.962;2023-04-03T04:03:59;3.53;;;2.85;;
49978;SDS011;35869;50.990;6.962;2023-04-03T04:09:00;5.63;;;3.10;;
49978;SDS011;35869;50.990;6.962;2023-04-03T04:14:00;4.55;;;3.30;;
49978;SDS011;35869;50.990;6.962;2023-04-03T04:19:00;3.97;;;2.83;;
49978;SDS011;35869;50.990;6.962;2023-04-03T04:29:01;3.38;;;2.75;;
49978;SDS011;35869;50.990;6.962;2023-04-03T04:34:02;5.07;;;2.70;;
49978;SDS011;35869;50.990;6.962;2023-04-03T04:39:02;2.93;;;2.50;;
49978;SDS011;35869;50.990;6.962;2023-04-03T04:44:02;3.10;;;2.75;;
49978;SDS011;35869;50.990;6.962;2023-04-03T04:49:02;3.92;;;2.95;;
49978;SDS011;35869;50.990;6.962;2023-04-03T04:54:03;5.47;;;2.47;;
49978;SDS011;35869;50.990;6.962;2023-04-03T04:59:03;4.47;;;2.85;;
49978;SDS011;35869;50.990;6.962;2023-04-03T05:04:03;3.80;;;2.83;;
49978;SDS011;35869;50.990;6.962;2023-04-03T05:09:04;7.37;;;2.80;;
49978;SDS011;35869;50.990;6.962;2023-04-03T05:14:04;6.70;;;2.28;;
49978;SDS011;35869;50.990;6.962;2023-04-03T05:19:04;7.22;;;2.50;;
49978;SDS011;35869;50.990;6.962;2023-04-03T05:24:04;6.10;;;2.75;;
49978;SDS011;35869;50.990;6.962;2023-04-03T05:29:05;4.40;;;3.13;;
49978;SDS011;35869;50.990;6.962;2023-04-03T05:34:06;2.90;;;2.55;;
49978;SDS011;35869;50.990;6.962;2023-04-03T05:39:06;5.32;;;3.63;;
49978;SDS011;35869;50.990;6.962;2023-04-03T05:44:06;4.30;;;2.87;;
49978;SDS011;35869;50.990;6.962;2023-04-03T05:49:06;4.88;;;2.40;;
49978;SDS011;35869;50.990;6.962;2023-04-03T05:54:17;3.78;;;2.63;;
49978;SDS011;35869;50.990;6.962;2023-04-03T05:59:20;4.80;;;2.70;;
49978;SDS011;35869;50.990;6.962;2023-04-03T06:04:20;3.00;;;2.33;;
49978;SDS011;35869;50.990;6.962;2023-04-03T06:09:21;2.90;;;2.63;;
49978;SDS011;35869;50.990;6.962;2023-04-03T06:14:23;3.83;;;2.78;;
49978;SDS011;35869;50.990;6.962;2023-04-03T06:19:24;2.47;;;2.28;;
49978;SDS011;35869;50.990;6.962;2023-04-03T06:24:24;3.88;;;2.33;;
49978;SDS011;35869;50.990;6.962;2023-04-03T06:29:24;6.10;;;2.60;;
49978;SDS011;35869;50.990;6.962;2023-04-03T06:34:25;4.63;;;2.73;;
49978;SDS011;35869;50.990;6.962;2023-04-03T06:39:25;5.38;;;2.10;;
49978;SDS011;35869;50.990;6.962;2023-04-03T06:44:25;2.10;;;1.80;;
49978;SDS011;35869;50.990;6.962;2023-04-03T06:49:25;5.07;;;2.67;;
49978;SDS011;35869;50.990;6.962;2023-04-03T06:54:26;2.90;;;1.98;;
49978;SDS011;35869;50.990;6.962;2023-04-03T06:59:26;3.78;;;2.25;;
49978;SDS011;35869;50.990;6.962;2023-04-03T07:04:26;3.43;;;1.83;;
49978;SDS011;35869;50.990;6.962;2023-04-03T07:09:27;3.90;;;2.08;;
49978;SDS011;35869;50.990;6.962;2023-04-03T07:14:27;5.05;;;2.20;;
49978;SDS011;35869;50.990;6.962;2023-04-03T07:19:27;3.72;;;1.83;;
49978;SDS011;35869;50.990;6.962;2023-04-03T07:24:27;3.70;;;1.80;;
49978;SDS011;35869;50.990;6.962;2023-04-03T07:29:27;2.65;;;1.70;;
49978;SDS011;35869;50.990;6.962;2023-04-03T07:34:28;3.17;;;1.73;;
49978;SDS011;35869;50.990;6.962;2023-04-03T07:39:28;3.55;;;1.58;;
49978;SDS011;35869;50.990;6.962;2023-04-03T07:44:29;3.20;;;1.48;;
49978;SDS011;35869;50.990;6.962;2023-04-03T07:49:29;3.13;;;1.42;;
49978;SDS011;35869;50.990;6.962;2023-04-03T07:54:29;2.80;;;1.30;;
49978;SDS011;35869;50.990;6.962;2023-04-03T07:59:29;3.40;;;1.67;;
49978;SDS011;35869;50.990;6.962;2023-04-03T08:04:30;2.80;;;1.25;;
49978;SDS011;35869;50.990;6.962;2023-04-03T08:09:30;39.17;;;1.98;;
49978;SDS011;35869;50.990;6.962;2023-04-03T08:14:31;3.38;;;1.10;;
49978;SDS011;35869;50.990;6.962;2023-04-03T08:19:32;3.28;;;1.50;;
49978;SDS011;35869;50.990;6.962;2023-04-03T08:24:32;3.55;;;1.30;;
49978;SDS011;35869;50.990;6.962;2023-04-03T08:29:33;4.80;;;1.73;;
49978;SDS011;35869;50.990;6.962;2023-04-03T08:34:33;1.80;;;1.30;;
49978;SDS011;35869;50.990;6.962;2023-04-03T08:39:33;2.90;;;1.20;;
49978;SDS011;35869;50.990;6.962;2023-04-03T08:44:39;1.27;;;0.98;;
49978;SDS011;35869;50.990;6.962;2023-04-03T08:49:53;2.72;;;1.17;;
49978;SDS011;35869;50.990;6.962;2023-04-03T08:54:57;5.28;;;1.27;;
49978;SDS011;35869;50.990;6.962;2023-04-03T09:00:06;1.55;;;0.98;;
49978;SDS011;35869;50.990;6.962;2023-04-03T09:05:19;2.88;;;0.95;;
49978;SDS011;35869;50.990;6.962;2023-04-03T09:10:27;2.08;;;1.15;;
49978;SDS011;35869;50.990;6.962;2023-04-03T09:15:32;2.10;;;0.75;;
49978;SDS011;35869;50.990;6.962;2023-04-03T09:25:42;3.63;;;1.17;;
49978;SDS011;35869;50.990;6.962;2023-04-03T09:30:43;3.35;;;1.13;;
49978;SDS011;35869;50.990;6.962;2023-04-03T09:35:43;1.80;;;0.60;;
49978;SDS011;35869;50.990;6.962;2023-04-03T09:40:47;2.00;;;1.50;;
49978;SDS011;35869;50.990;6.962;2023-04-03T09:51:36;1.17;;;0.70;;
49978;SDS011;35869;50.990;6.962;2023-04-03T09:56:37;2.60;;;1.10;;
49978;SDS011;35869;50.990;6.962;2023-04-03T10:01:39;1.92;;;0.98;;
49978;SDS011;35869;50.990;6.962;2023-04-03T10:06:44;3.67;;;0.85;;
49978;SDS011;35869;50.990;6.962;2023-04-03T10:11:58;3.35;;;0.90;;
49978;SDS011;35869;50.990;6.962;2023-04-03T10:17:14;3.88;;;0.95;;
49978;SDS011;35869;50.990;6.962;2023-04-03T10:32:54;1.38;;;0.60;;
49978;SDS011;35869;50.990;6.962;2023-04-03T10:43:18;4.40;;;1.13;;
49978;SDS011;35869;50.990;6.962;2023-04-03T10:48:53;2.15;;;0.88;;
49978;SDS011;35869;50.990;6.962;2023-04-03T10:54:05;2.83;;;1.55;;
49978;SDS011;35869;50.990;6.962;2023-04-03T10:59:16;1.48;;;0.90;;
49978;SDS011;35869;50.990;6.962;2023-04-03T11:04:17;1.48;;;0.93;;
49978;SDS011;35869;50.990;6.962;2023-04-03T11:09:25;2.72;;;0.80;;
49978;SDS011;35869;50.990;6.962;2023-04-03T11:14:28;0.95;;;0.73;;
49978;SDS011;35869;50.990;6.962;2023-04-03T11:19:34;2.80;;;0.60;;
49978;SDS011;35869;50.990;6.962;2023-04-03T11:24:39;1.35;;;0.55;;
49978;SDS011;35869;50.990;6.962;2023-04-03T11:29:42;2.72;;;0.88;;
49978;SDS011;35869;50.990;6.962;2023-04-03T11:34:46;2.13;;;0.70;;
49978;SDS011;35869;50.990;6.962;2023-04-03T11:39:57;1.35;;;0.73;;
49978;SDS011;35869;50.990;6.962;2023-04-03T12:16:27;0.82;;;0.40;;
49978;SDS011;35869;50.990;6.962;2023-04-03T12:31:46;1.65;;;0.63;;
49978;SDS011;35869;50.990;6.962;2023-04-03T12:37:00;0.82;;;0.60;;
49978;SDS011;35869;50.990;6.962;2023-04-03T12:42:14;1.02;;;0.38;;
49978;SDS011;35869;50.990;6.962;2023-04-03T12:47:26;1.27;;;0.60;;
49978;SDS011;35869;50.990;6.962;2023-04-03T12:52:38;1.20;;;0.65;;
49978;SDS011;35869;50.990;6.962;2023-04-03T12:57:44;0.73;;;0.55;;
49978;SDS011;35869;50.990;6.962;2023-04-03T13:02:44;1.33;;;0.67;;
49978;SDS011;35869;50.990;6.962;2023-04-03T13:07:48;0.90;;;0.47;;
49978;SDS011;35869;50.990;6.962;2023-04-03T13:17:54;2.20;;;0.73;;
49978;SDS011;35869;50.990;6.962;2023-04-03T13:23:05;1.65;;;0.50;;
49978;SDS011;35869;50.990;6.962;2023-04-03T13:28:09;0.98;;;0.60;;
49978;SDS011;35869;50.990;6.962;2023-04-03T13:33:23;1.02;;;0.70;;
49978;SDS011;35869;50.990;6.962;2023-04-03T13:38:27;1.55;;;0.80;;
49978;SDS011;35869;50.990;6.962;2023-04-03T13:43:31;0.68;;;0.57;;
49978;SDS011;35869;50.990;6.962;2023-04-03T13:48:37;1.35;;;0.57;;
49978;SDS011;35869;50.990;6.962;2023-04-03T13:53:48;1.23;;;1.00;;
49978;SDS011;35869;50.990;6.962;2023-04-03T14:04:15;0.90;;;0.70;;
49978;SDS011;35869;50.990;6.962;2023-04-03T14:09:24;2.15;;;0.60;;
49978;SDS011;35869;50.990;6.962;2023-04-03T14:14:27;2.17;;;0.90;;
49978;SDS011;35869;50.990;6.962;2023-04-03T14:19:34;2.35;;;0.77;;
49978;SDS011;35869;50.990;6.962;2023-04-03T14:24:35;3.83;;;1.05;;
49978;SDS011;35869;50.990;6.962;2023-04-03T14:29:35;1.67;;;0.73;;
49978;SDS011;35869;50.990;6.962;2023-04-03T14:34:35;1.20;;;0.68;;
49978;SDS011;35869;50.990;6.962;2023-04-03T14:39:35;1.75;;;0.90;;
49978;SDS011;35869;50.990;6.962;2023-04-03T14:44:35;1.52;;;1.00;;
49978;SDS011;35869;50.990;6.962;2023-04-03T14:49:36;2.05;;;0.77;;
49978;SDS011;35869;50.990;6.962;2023-04-03T14:54:36;1.52;;;0.82;;
49978;SDS011;35869;50.990;6.962;2023-04-03T14:59:36;1.40;;;0.60;;
49978;SDS011;35869;50.990;6.962;2023-04-03T15:04:36;2.40;;;0.90;;
49978;SDS011;35869;50.990;6.962;2023-04-03T15:09:37;1.63;;;0.82;;
49978;SDS011;35869;50.990;6.962;2023-04-03T15:14:37;2.17;;;0.88;;
49978;SDS011;35869;50.990;6.962;2023-04-03T15:19:37;1.90;;;0.98;;
49978;SDS011;35869;50.990;6.962;2023-04-03T15:24:38;1.35;;;0.50;;
49978;SDS011;35869;50.990;6.962;2023-04-03T15:29:39;1.65;;;1.27;;
49978;SDS011;35869;50.990;6.962;2023-04-03T15:34:41;2.40;;;0.75;;
49978;SDS011;35869;50.990;6.962;2023-04-03T15:39:41;3.25;;;0.95;;
49978;SDS011;35869;50.990;6.962;2023-04-03T15:44:41;1.90;;;0.90;;
49978;SDS011;35869;50.990;6.962;2023-04-03T15:49:43;1.93;;;1.00;;
49978;SDS011;35869;50.990;6.962;2023-04-03T15:54:43;3.17;;;1.13;;
49978;SDS011;35869;50.990;6.962;2023-04-03T15:59:43;1.70;;;0.88;;
49978;SDS011;35869;50.990;6.962;2023-04-03T16:04:44;2.88;;;1.02;;
49978;SDS011;35869;50.990;6.962;2023-04-03T16:09:44;1.23;;;0.70;;
49978;SDS011;35869;50.990;6.962;2023-04-03T16:14:44;5.55;;;1.00;;
49978;SDS011;35869;50.990;6.962;2023-04-03T16:19:44;0.93;;;0.70;;
49978;SDS011;35869;50.990;6.962;2023-04-03T16:24:45;1.48;;;0.70;;
49978;SDS011;35869;50.990;6.962;2023-04-03T16:29:45;1.50;;;0.73;;
49978;SDS011;35869;50.990;6.962;2023-04-03T16:34:45;1.88;;;1.00;;
49978;SDS011;35869;50.990;6.962;2023-04-03T16:39:45;2.45;;;0.80;;
49978;SDS011;35869;50.990;6.962;2023-04-03T16:44:45;4.00;;;0.95;;
49978;SDS011;35869;50.990;6.962;2023-04-03T16:49:46;2.75;;;0.90;;
49978;SDS011;35869;50.990;6.962;2023-04-03T16:54:46;1.17;;;0.75;;
49978;SDS011;35869;50.990;6.962;2023-04-03T16:59:47;0.98;;;0.73;;
49978;SDS011;35869;50.990;6.962;2023-04-03T17:04:47;0.63;;;0.63;;
49978;SDS011;35869;50.990;6.962;2023-04-03T17:09:47;1.70;;;0.98;;
49978;SDS011;35869;50.990;6.962;2023-04-03T17:14:48;1.15;;;0.75;;
49978;SDS011;35869;50.990;6.962;2023-04-03T17:19:48;2.37;;;0.90;;
49978;SDS011;35869;50.990;6.962;2023-04-03T17:24:49;1.30;;;0.90;;
49978;SDS011;35869;50.990;6.962;2023-04-03T17:29:49;3.08;;;0.85;;
49978;SDS011;35869;50.990;6.962;2023-04-03T17:34:49;1.80;;;0.80;;
49978;SDS011;35869;50.990;6.962;2023-04-03T17:39:50;2.60;;;1.00;;
49978;SDS011;35869;50.990;6.962;2023-04-03T17:44:50;1.27;;;0.63;;
49978;SDS011;35869;50.990;6.962;2023-04-03T17:49:50;1.08;;;0.80;;
49978;SDS011;35869;50.990;6.962;2023-04-03T17:54:50;1.75;;;0.70;;
49978;SDS011;35869;50.990;6.962;2023-04-03T17:59:50;2.60;;;1.40;;
49978;SDS011;35869;50.990;6.962;2023-04-03T18:04:51;2.00;;;1.25;;
49978;SDS011;35869;50.990;6.962;2023-04-03T18:09:52;1.48;;;0.80;;
49978;SDS011;35869;50.990;6.962;2023-04-03T18:14:55;1.92;;;0.90;;
49978;SDS011;35869;50.990;6.962;2023-04-03T18:19:57;1.13;;;0.80;;
49978;SDS011;35869;50.990;6.962;2023-04-03T18:24:58;0.60;;;0.50;;
49978;SDS011;35869;50.990;6.962;2023-04-03T18:30:02;3.23;;;1.27;;
49978;SDS011;35869;50.990;6.962;2023-04-03T18:35:08;1.50;;;0.95;;
49978;SDS011;35869;50.990;6.962;2023-04-03T18:40:08;2.85;;;0.90;;
49978;SDS011;35869;50.990;6.962;2023-04-03T18:45:09;1.80;;;1.00;;
49978;SDS011;35869;50.990;6.962;2023-04-03T18:50:12;2.28;;;0.98;;
49978;SDS011;35869;50.990;6.962;2023-04-03T18:55:12;1.60;;;0.80;;
49978;SDS011;35869;50.990;6.962;2023-04-03T19:00:13;1.77;;;0.77;;
49978;SDS011;35869;50.990;6.962;2023-04-03T19:05:14;4.07;;;0.82;;
49978;SDS011;35869;50.990;6.962;2023-04-03T19:10:16;3.60;;;0.80;;
49978;SDS011;35869;50.990;6.962;2023-04-03T19:15:18;1.38;;;0.93;;
49978;SDS011;35869;50.990;6.962;2023-04-03T19:20:20;3.22;;;0.98;;
49978;SDS011;35869;50.990;6.962;2023-04-03T19:25:20;3.22;;;0.90;;
49978;SDS011;35869;50.990;6.962;2023-04-03T19:30:20;1.38;;;1.05;;
49978;SDS011;35869;50.990;6.962;2023-04-03T19:35:21;2.63;;;0.93;;
49978;SDS011;35869;50.990;6.962;2023-04-03T19:40:21;1.33;;;0.80;;
49978;SDS011;35869;50.990;6.962;2023-04-03T19:45:21;1.65;;;0.77;;
49978;SDS011;35869;50.990;6.962;2023-04-03T19:50:22;3.63;;;1.25;;
49978;SDS011;35869;50.990;6.962;2023-04-03T19:55:22;1.73;;;1.13;;
49978;SDS011;35869;50.990;6.962;2023-04-03T20:00:22;4.20;;;1.38;;
49978;SDS011;35869;50.990;6.962;2023-04-03T20:05:23;1.60;;;1.20;;
49978;SDS011;35869;50.990;6.962;2023-04-03T20:10:23;1.10;;;0.97;;
49978;SDS011;35869;50.990;6.962;2023-04-03T20:15:24;3.47;;;1.23;;
49978;SDS011;35869;50.990;6.962;2023-04-03T20:20:24;4.05;;;1.85;;
49978;SDS011;35869;50.990;6.962;2023-04-03T20:25:24;3.40;;;1.75;;
49978;SDS011;35869;50.990;6.962;2023-04-03T20:30:24;2.80;;;1.50;;
49978;SDS011;35869;50.990;6.962;2023-04-03T20:35:25;1.73;;;1.30;;
49978;SDS011;35869;50.990;6.962;2023-04-03T20:40:25;1.55;;;1.10;;
49978;SDS011;35869;50.990;6.962;2023-04-03T20:45:25;1.67;;;1.33;;
49978;SDS011;35869;50.990;6.962;2023-04-03T20:50:26;3.30;;;1.27;;
49978;SDS011;35869;50.990;6.962;2023-04-03T20:55:26;2.57;;;1.17;;
49978;SDS011;35869;50.990;6.962;2023-04-03T21:00:27;2.13;;;1.10;;
49978;SDS011;35869;50.990;6.962;2023-04-03T21:05:28;2.33;;;1.65;;
49978;SDS011;35869;50.990;6.962;2023-04-03T21:21:16;6.13;;;1.45;;
49978;SDS011;35869;50.990;6.962;2023-04-03T21:26:17;1.85;;;0.95;;
49978;SDS011;35869;50.990;6.962;2023-04-03T21:36:21;1.48;;;1.30;;
49978;SDS011;35869;50.990;6.962;2023-04-03T21:41:21;2.95;;;1.50;;
49978;SDS011;35869;50.990;6.962;2023-04-03T21:46:22;2.22;;;1.65;;
49978;SDS011;35869;50.990;6.962;2023-04-03T21:51:22;5.40;;;1.30;;
49978;SDS011;35869;50.990;6.962;2023-04-03T21:56:23;2.87;;;1.30;;
49978;SDS011;35869;50.990;6.962;2023-04-03T22:01:23;3.38;;;1.83;;
49978;SDS011;35869;50.990;6.962;2023-04-03T22:06:23;2.97;;;1.45;;
49978;SDS011;35869;50.990;6.962;2023-04-03T22:11:24;3.45;;;1.70;;
49978;SDS011;35869;50.990;6.962;2023-04-03T22:16:24;3.03;;;1.70;;
49978;SDS011;35869;50.990;6.962;2023-04-03T22:21:24;2.22;;;1.55;;
49978;SDS011;35869;50.990;6.962;2023-04-03T22:26:24;3.33;;;1.92;;
49978;SDS011;35869;50.990;6.962;2023-04-03T22:31:25;1.35;;;1.15;;
49978;SDS011;35869;50.990;6.962;2023-04-03T22:36:25;1.63;;;1.30;;
49978;SDS011;35869;50.990;6.962;2023-04-03T22:41:25;3.47;;;1.50;;
49978;SDS011;35869;50.990;6.962;2023-04-03T22:46:25;3.05;;;1.80;;
49978;SDS011;35869;50.990;6.962;2023-04-03T22:51:25;5.43;;;2.05;;
49978;SDS011;35869;50.990;6.962;2023-04-03T22:56:26;2.65;;;1.42;;
49978;SDS011;35869;50.990;6.962;2023-04-03T23:01:26;2.85;;;1.83;;
49978;SDS011;35869;50.990;6.962;2023-04-03T23:06:26;4.70;;;2.33;;
49978;SDS011;35869;50.990;6.962;2023-04-03T23:11:26;2.42;;;1.88;;
49978;SDS011;35869;50.990;6.962;2023-04-03T23:16:26;2.83;;;1.70;;
49978;SDS011;35869;50.990;6.962;2023-04-03T23:21:26;2.55;;;1.75;;
49978;SDS011;35869;50.990;6.962;2023-04-03T23:26:27;3.25;;;1.50;;
49978;SDS011;35869;50.990;6.962;2023-04-03T23:31:27;2.25;;;1.67;;
49978;SDS011;35869;50.990;6.962;2023-04-03T23:36:27;3.78;;;1.80;;
49978;SDS011;35869;50.990;6.962;2023-04-03T23:41:27;2.53;;;1.65;;
49978;SDS011;35869;50.990;6.962;2023-04-03T23:46:27;2.65;;;1.90;;
49978;SDS011;35869;50.990;6.962;2023-04-03T23:51:28;5.55;;;1.98;;
49978;SDS011;35869;50.990;6.962;2023-04-03T23:56:28;2.80;;;1.80;;
